Time;durP1;ratioP1;P1;durP2;ratioP2;P2;SDS_P1;SDS_P2;PMS_P1;PMS_P2;Temp;Humidity;BMP_temperature;BMP_pressure;BME280_temperature;BME280_humidity;BME280_pressure;Samples;Min_cycle;Max_cycle;Signal;HPM_P1;HPM_P2
2022/07/17 00:01:45;;;;;;;10.90;5.18;;;;;;;25.03;41.27;99241.66;5093430;28;20043;-72
2022/07/17 00:04:10;;;;;;;13.20;6.05;;;;;;;25.06;40.88;99238.41;5076685;28;20043;-76
2022/07/17 00:06:36;;;;;;;10.07;5.20;;;;;;;25.17;40.54;99239.31;5060646;28;20043;-73
2022/07/17 00:09:02;;;;;;;8.15;4.30;;;;;;;25.28;40.37;99243.72;5060293;28;20050;-72
2022/07/17 00:11:28;;;;;;;10.57;4.60;;;;;;;25.31;40.33;99243.19;5060053;28;20063;-73
2022/07/17 00:13:54;;;;;;;6.30;4.20;;;;;;;25.25;40.26;99249.69;5076828;28;20058;-73
2022/07/17 00:16:20;;;;;;;6.35;4.00;;;;;;;25.32;40.07;99255.69;5060011;28;20124;-72
2022/07/17 00:18:46;;;;;;;10.55;4.13;;;;;;;25.28;40.09;99249.16;5076499;28;20546;-73
2022/07/17 00:21:12;;;;;;;8.65;4.00;;;;;;;25.24;39.81;99246.13;5043026;28;20138;-75
2022/07/17 00:23:39;;;;;;;6.25;4.00;;;;;;;25.25;39.95;99253.22;5076665;28;20040;-74
2022/07/17 00:26:05;;;;;;;6.93;4.30;;;;;;;25.31;40.00;99254.06;5060027;28;20043;-74
2022/07/17 00:28:30;;;;;;;8.20;4.18;;;;;;;25.45;39.54;99263.44;5059555;28;20443;-74
2022/07/17 00:30:56;;;;;;;8.13;4.60;;;;;;;25.48;39.61;99258.28;5042957;28;20571;-74
2022/07/17 00:33:22;;;;;;;6.45;4.60;;;;;;;25.45;39.17;99255.28;5059753;28;20047;-73
2022/07/17 00:35:48;;;;;;;6.90;3.75;;;;;;;25.43;39.14;99254.72;5043160;28;20379;-74
2022/07/17 00:38:14;;;;;;;4.90;3.40;;;;;;;25.42;38.83;99256.63;5059569;28;20043;-74
2022/07/17 00:40:43;;;;;;;6.35;3.45;;;;;;;25.77;38.37;99259.50;5043120;28;20032;-74
2022/07/17 00:43:11;;;;;;;7.63;3.38;;;;;;;25.51;38.45;99260.47;5093203;28;20035;-74
2022/07/17 00:45:37;;;;;;;9.48;3.22;;;;;;;25.40;38.07;99264.19;5059427;28;20071;-74
2022/07/17 00:48:05;;;;;;;12.13;4.35;;;;;;;25.96;38.35;99262.59;5059632;28;20075;-74
2022/07/17 00:50:36;;;;;;;15.02;5.65;;;;;;;25.75;38.72;99261.69;5059351;28;20067;-74
2022/07/17 00:53:03;;;;;;;14.23;4.70;;;;;;;25.47;39.33;99251.22;5092239;28;20126;-76
2022/07/17 00:55:29;;;;;;;8.00;5.05;;;;;;;25.23;39.65;99255.38;5092402;28;20048;-74
2022/07/17 00:57:56;;;;;;;11.70;5.18;;;;;;;25.31;39.94;99257.59;5058718;28;20051;-74
2022/07/17 01:00:22;;;;;;;9.82;5.28;;;;;;;25.16;40.32;99256.66;5078951;28;20050;-74
2022/07/17 01:02:51;;;;;;;9.60;5.50;;;;;;;24.88;40.96;99255.94;5045737;28;20043;-74
2022/07/17 01:05:19;;;;;;;8.63;5.28;;;;;;;24.55;41.88;99244.47;5096453;28;20052;-74
2022/07/17 01:07:44;;;;;;;10.15;5.03;;;;;;;24.30;42.14;99253.19;5062980;28;20035;-74
2022/07/17 01:10:11;;;;;;;11.90;5.20;;;;;;;24.43;41.67;99249.25;5046026;28;20527;-73
2022/07/17 01:12:38;;;;;;;10.02;5.15;;;;;;;24.30;41.91;99250.47;5046021;28;20044;-73
2022/07/17 01:15:04;;;;;;;12.70;6.18;;;;;;;24.29;42.20;99251.56;5046050;28;20444;-73
2022/07/17 01:17:31;;;;;;;11.73;5.07;;;;;;;24.23;42.42;99254.47;5046382;28;20048;-72
2022/07/17 01:19:57;;;;;;;12.68;6.93;;;;;;;24.03;42.62;99262.38;5080013;28;20537;-73
2022/07/17 01:22:23;;;;;;;11.13;6.00;;;;;;;23.98;42.79;99262.31;5064068;28;20048;-73
2022/07/17 01:24:51;;;;;;;10.60;6.60;;;;;;;23.78;43.27;99251.19;5063343;28;20134;-74
2022/07/17 01:27:17;;;;;;;16.70;6.70;;;;;;;23.76;43.64;99275.00;5046383;28;20527;-74
2022/07/17 01:29:42;;;;;;;14.48;6.75;;;;;;;23.89;43.49;99274.66;5046124;28;20035;-73
2022/07/17 01:32:11;;;;;;;8.93;5.90;;;;;;;24.04;43.01;99286.53;5046633;28;20050;-73
2022/07/17 01:34:37;;;;;;;12.77;6.07;;;;;;;23.70;43.79;99281.44;5062347;28;20047;-73
2022/07/17 01:37:02;;;;;;;9.55;6.35;;;;;;;23.55;44.19;99283.94;5062038;28;20039;-74
2022/07/17 01:42:12;;;;;;;12.70;5.38;;;;;;;23.48;44.14;99280.63;5065299;28;20116;-73
2022/07/17 01:44:38;;;;;;;11.68;5.53;;;;;;;23.42;44.09;99278.91;5061937;28;20503;-73
2022/07/17 01:47:04;;;;;;;10.88;5.57;;;;;;;23.53;43.92;99280.66;5045974;28;20498;-74
2022/07/17 01:49:30;;;;;;;11.60;5.18;;;;;;;23.54;43.54;99261.44;5079197;28;20442;-74
2022/07/17 01:51:59;;;;;;;10.65;5.72;;;;;;;23.75;43.71;99289.66;5045831;28;20122;-74
2022/07/17 01:54:29;;;;;;;11.85;6.57;;;;;;;24.00;43.54;99276.44;5114601;28;20048;-74
2022/07/17 01:56:55;;;;;;;16.38;6.60;;;;;;;23.87;43.44;99276.78;5078966;28;20051;-73
2022/07/17 01:59:21;;;;;;;7.57;5.65;;;;;;;24.08;43.05;99284.16;5045800;28;20054;-74
2022/07/17 02:01:47;;;;;;;11.70;5.25;;;;;;;23.96;42.91;99269.88;5096302;28;20039;-79
2022/07/17 02:04:13;;;;;;;10.93;5.28;;;;;;;24.16;42.54;99280.97;5061832;28;20392;-74
2022/07/17 02:06:38;;;;;;;9.52;5.40;;;;;;;24.17;41.93;99278.00;5045907;28;20063;-73
2022/07/17 02:09:04;;;;;;;13.25;4.80;;;;;;;24.26;41.91;99276.47;5063928;28;20063;-73
2022/07/17 02:11:30;;;;;;;9.88;4.35;;;;;;;24.24;41.72;99266.94;5045591;28;20055;-73
2022/07/17 02:13:55;;;;;;;7.72;4.57;;;;;;;24.39;41.70;99283.41;5062663;28;20047;-73
2022/07/17 02:16:21;;;;;;;10.98;4.90;;;;;;;24.45;41.47;99266.91;5061856;28;20388;-73
2022/07/17 02:18:48;;;;;;;9.30;4.05;;;;;;;24.56;41.05;99265.09;5045336;28;20044;-73
2022/07/17 02:21:13;;;;;;;8.63;4.57;;;;;;;24.72;40.67;99272.38;5078933;28;20059;-73
2022/07/17 02:23:39;;;;;;;7.53;4.18;;;;;;;24.92;40.36;99278.78;5061863;28;20082;-73
2022/07/17 02:26:05;;;;;;;10.38;5.28;;;;;;;25.17;39.94;99278.16;5062650;28;20120;-73
2022/07/17 02:28:31;;;;;;;9.10;4.50;;;;;;;25.31;39.24;99275.81;5062547;28;20410;-73
2022/07/17 02:30:56;;;;;;;8.50;3.95;;;;;;;25.19;39.41;99284.16;5062109;28;20457;-73
2022/07/17 02:33:22;;;;;;;9.90;4.60;;;;;;;25.06;39.94;99281.91;5044292;28;20047;-72
2022/07/17 02:35:48;;;;;;;7.88;4.15;;;;;;;25.26;39.41;99283.94;5061364;28;20043;-74
2022/07/17 02:38:14;;;;;;;10.00;5.18;;;;;;;25.46;39.30;99287.66;5077838;28;20047;-73
2022/07/17 02:40:41;;;;;;;8.82;4.45;;;;;;;25.61;38.82;99284.19;5045018;28;20045;-73
2022/07/17 02:43:07;;;;;;;7.30;4.80;;;;;;;25.75;38.56;99279.91;5094633;28;20044;-73
2022/07/17 02:45:33;;;;;;;10.95;4.70;;;;;;;25.73;38.65;99271.19;5077806;28;20043;-73
2022/07/17 02:47:59;;;;;;;11.73;5.10;;;;;;;25.76;38.51;99286.97;5060831;28;20171;-73
2022/07/17 02:50:25;;;;;;;11.88;4.35;;;;;;;25.75;38.64;99280.75;5044009;28;20047;-74
2022/07/17 02:52:51;;;;;;;11.18;5.15;;;;;;;25.84;38.50;99278.31;5043884;28;20044;-73
2022/07/17 02:55:17;;;;;;;10.43;4.90;;;;;;;25.90;38.65;99283.53;5060986;28;20054;-73
2022/07/17 02:57:43;;;;;;;10.82;4.97;;;;;;;26.10;38.29;99278.19;5077759;28;20036;-73
2022/07/17 03:00:11;;;;;;;13.73;4.90;;;;;;;26.37;37.93;99278.81;5061228;28;20039;-73
2022/07/17 03:02:38;;;;;;;8.30;4.88;;;;;;;26.08;38.27;99274.91;5044576;28;20047;-73
2022/07/17 03:05:05;;;;;;;12.20;5.10;;;;;;;26.35;38.24;99283.69;5060967;28;20089;-72
2022/07/17 03:07:30;;;;;;;7.88;5.03;;;;;;;26.16;37.95;99277.13;5060801;28;20126;-73
2022/07/17 03:09:56;;;;;;;10.07;5.30;;;;;;;26.13;38.06;99269.50;5076878;28;20138;-73
2022/07/17 03:12:24;;;;;;;11.07;4.80;;;;;;;26.32;38.13;99278.00;5043700;28;20041;-74
2022/07/17 03:14:50;;;;;;;16.33;5.22;;;;;;;26.35;38.12;99280.97;5061379;28;20039;-74
2022/07/17 03:17:16;;;;;;;9.52;5.20;;;;;;;26.34;38.03;99284.81;5077266;28;20043;-73
2022/07/17 03:19:42;;;;;;;11.13;4.82;;;;;;;26.34;37.94;99279.34;5043818;28;20093;-73
2022/07/17 03:22:07;;;;;;;10.25;4.90;;;;;;;26.40;37.84;99274.75;5060266;28;20074;-74
2022/07/17 03:24:34;;;;;;;13.02;5.13;;;;;;;26.41;38.00;99274.50;5076990;28;20143;-73
2022/07/17 03:27:00;;;;;;;11.07;4.80;;;;;;;26.27;38.20;99278.81;5043778;28;20122;-73
2022/07/17 03:29:25;;;;;;;8.43;4.78;;;;;;;26.30;38.27;99282.88;5060608;28;20085;-73
2022/07/17 03:31:51;;;;;;;7.15;4.82;;;;;;;26.28;38.20;99279.59;5060467;28;20043;-73
2022/07/17 03:34:17;;;;;;;11.93;4.72;;;;;;;26.25;38.52;99280.97;5060600;28;20070;-73
2022/07/17 03:36:43;;;;;;;12.52;4.75;;;;;;;26.21;38.47;99282.59;5043712;28;20071;-73
2022/07/17 03:39:11;;;;;;;13.05;5.00;;;;;;;26.43;38.59;99283.19;5059886;28;20099;-74
2022/07/17 03:41:37;;;;;;;8.10;4.43;;;;;;;26.11;38.73;99273.56;5076180;28;20522;-73
2022/07/17 03:44:03;;;;;;;10.05;4.97;;;;;;;26.10;38.81;99277.38;5076883;28;20039;-73
2022/07/17 03:46:28;;;;;;;7.18;4.40;;;;;;;25.93;38.79;99252.25;5043954;28;20043;-74
2022/07/17 03:48:54;;;;;;;14.23;4.72;;;;;;;26.14;38.70;99273.03;5060411;28;20046;-74
2022/07/17 03:51:20;;;;;;;11.98;4.40;;;;;;;26.30;38.26;99266.53;5043847;28;20062;-73
2022/07/17 03:53:46;;;;;;;9.35;4.30;;;;;;;26.43;37.84;99261.41;5060386;28;20134;-74
2022/07/17 03:56:12;;;;;;;5.28;3.97;;;;;;;26.64;37.57;99269.63;5060246;28;20132;-73
2022/07/17 03:58:38;;;;;;;9.60;4.45;;;;;;;26.81;37.52;99272.91;5060116;28;20047;-73
2022/07/17 04:01:03;;;;;;;7.60;4.22;;;;;;;27.03;37.12;99276.22;5059581;28;20042;-73
2022/07/17 04:03:29;;;;;;;9.80;3.97;;;;;;;27.03;37.05;99276.22;5042976;28;20392;-74
2022/07/17 04:05:55;;;;;;;9.07;4.00;;;;;;;27.17;36.88;99278.09;5076089;28;20035;-73
2022/07/17 04:08:21;;;;;;;6.85;3.90;;;;;;;27.18;37.14;99276.19;5043057;28;20051;-72
2022/07/17 04:10:47;;;;;;;7.57;4.38;;;;;;;27.29;36.77;99277.84;5059241;28;20499;-73
2022/07/17 04:13:12;;;;;;;9.55;4.05;;;;;;;27.34;36.94;99273.19;5059715;28;20088;-73
2022/07/17 04:15:55;;;;;;;9.45;4.05;;;;;;;27.35;37.10;99276.75;5043386;28;20058;-73
2022/07/17 04:18:23;;;;;;;10.13;4.35;;;;;;;27.67;36.74;99269.03;5079007;28;20221;-75
2022/07/17 04:20:49;;;;;;;8.07;4.20;;;;;;;27.58;36.90;99263.34;5076580;28;20097;-73
2022/07/17 04:23:16;;;;;;;7.03;4.18;;;;;;;27.73;36.70;99270.66;5059463;28;20043;-73
2022/07/17 04:25:42;;;;;;;11.32;4.13;;;;;;;27.57;36.79;99256.22;5076143;28;20101;-73
2022/07/17 04:28:08;;;;;;;6.97;3.92;;;;;;;27.85;36.68;99276.59;5059516;28;20032;-73
2022/07/17 04:30:34;;;;;;;6.93;3.58;;;;;;;27.94;36.53;99273.06;5076713;28;20491;-73
2022/07/17 04:33:00;;;;;;;10.07;3.72;;;;;;;28.07;36.50;99273.53;5060077;28;20047;-73
2022/07/17 04:35:26;;;;;;;6.93;3.70;;;;;;;28.22;36.74;99274.28;5063398;28;20495;-74
2022/07/17 04:37:52;;;;;;;7.43;3.78;;;;;;;28.03;36.21;99270.59;5080702;28;20092;-73
2022/07/17 04:40:18;;;;;;;7.50;4.00;;;;;;;28.10;36.03;99276.53;5047118;28;20141;-73
2022/07/17 04:42:44;;;;;;;9.57;4.00;;;;;;;28.02;36.39;99279.06;5063690;28;20072;-74
2022/07/17 04:45:10;;;;;;;11.98;3.58;;;;;;;28.00;36.39;99279.31;5080768;28;20085;-73
2022/07/17 04:47:35;;;;;;;6.82;3.42;;;;;;;27.99;36.42;99274.94;5080809;28;20457;-73
2022/07/17 04:50:01;;;;;;;6.97;3.70;;;;;;;28.11;36.14;99280.09;5080813;28;20153;-73
2022/07/17 04:52:27;;;;;;;8.38;3.78;;;;;;;28.15;36.07;99276.53;5063713;28;20044;-75
2022/07/17 04:54:53;;;;;;;6.40;3.45;;;;;;;28.22;36.10;99274.28;5081559;28;20524;-73
2022/07/17 04:57:19;;;;;;;10.48;3.63;;;;;;;28.18;36.53;99280.59;5074231;28;20640;-72
2022/07/17 04:59:45;;;;;;;6.75;3.88;;;;;;;28.23;36.04;99275.91;5062688;28;20047;-73
2022/07/17 05:02:10;;;;;;;6.63;3.45;;;;;;;27.99;36.12;99264.03;5057217;28;20074;-73
2022/07/17 05:04:36;;;;;;;7.70;3.58;;;;;;;28.05;35.85;99270.31;5072151;28;20054;-73
2022/07/17 05:07:02;;;;;;;6.75;3.58;;;;;;;28.03;35.84;99278.78;5051497;28;20043;-73
2022/07/17 05:09:28;;;;;;;9.35;3.20;;;;;;;27.96;35.88;99275.50;5096825;28;20130;-73
2022/07/17 05:11:54;;;;;;;8.65;3.22;;;;;;;28.00;35.69;99290.22;5046039;28;20079;-73
2022/07/17 05:14:23;;;;;;;11.20;3.88;;;;;;;28.06;35.48;99280.94;5046957;28;20079;-73
2022/07/17 05:16:49;;;;;;;10.13;3.85;;;;;;;28.17;35.37;99287.16;5045979;28;20071;-73
2022/07/17 05:19:14;;;;;;;14.27;3.70;;;;;;;28.28;35.12;99289.56;5046272;28;20138;-73
2022/07/17 05:21:43;;;;;;;6.47;3.70;;;;;;;28.11;35.46;99277.38;5080277;28;20054;-73
2022/07/17 05:24:08;;;;;;;9.50;3.33;;;;;;;28.24;35.16;99280.31;5046364;28;20055;-73
2022/07/17 05:26:34;;;;;;;13.73;3.17;;;;;;;28.37;34.70;99284.34;5045586;28;20044;-73
2022/07/17 05:29:00;;;;;;;4.63;2.95;;;;;;;28.39;34.35;99284.84;5062587;28;20152;-73
2022/07/17 05:31:26;;;;;;;10.05;3.30;;;;;;;28.36;34.43;99272.59;5046422;28;20040;-72
2022/07/17 05:33:52;;;;;;;4.47;2.08;;;;;;;28.37;33.20;99274.19;5046604;28;20046;-73
2022/07/17 05:36:17;;;;;;;3.58;1.98;;;;;;;28.45;31.59;99270.88;5063125;28;20039;-73
2022/07/17 05:38:43;;;;;;;6.38;2.03;;;;;;;28.31;31.96;99261.69;5063028;28;20564;-73
2022/07/17 05:41:09;;;;;;;3.67;1.73;;;;;;;28.48;31.89;99277.72;5063368;28;20395;-72
2022/07/17 05:43:35;;;;;;;2.92;1.90;;;;;;;28.42;31.93;99274.19;5063362;28;20403;-72
2022/07/17 05:46:01;;;;;;;3.22;2.03;;;;;;;28.32;31.94;99249.66;5044524;28;20051;-73
2022/07/17 05:48:27;;;;;;;4.15;2.00;;;;;;;28.58;31.67;99266.75;5062795;28;20399;-73
2022/07/17 05:50:53;;;;;;;9.75;1.85;;;;;;;28.43;31.06;99267.59;5078431;28;20055;-73
2022/07/17 05:53:18;;;;;;;4.97;1.98;;;;;;;28.31;31.28;99258.16;5061327;28;20043;-73
2022/07/17 05:55:44;;;;;;;7.20;1.70;;;;;;;28.22;30.86;99268.84;5061463;28;20407;-73
2022/07/17 05:58:10;;;;;;;7.20;2.90;;;;;;;28.26;32.22;99256.25;5061686;28;20094;-72
2022/07/17 06:00:36;;;;;;;12.05;3.90;;;;;;;28.20;33.10;99256.56;5045467;28;20518;-73
2022/07/17 06:03:03;;;;;;;5.55;2.80;;;;;;;28.15;32.97;99251.94;5078424;28;20044;-73
2022/07/17 06:05:29;;;;;;;6.07;2.95;;;;;;;27.97;33.16;99258.84;5079010;28;20047;-73
2022/07/17 06:07:56;;;;;;;5.30;2.40;;;;;;;28.29;33.00;99265.78;5045758;28;20048;-73
2022/07/17 06:10:23;;;;;;;8.77;2.38;;;;;;;28.11;32.56;99250.06;5075048;28;20051;-73
2022/07/17 06:12:49;;;;;;;8.55;2.00;;;;;;;28.11;32.63;99261.78;5075165;28;20036;-73
2022/07/17 06:15:15;;;;;;;5.07;1.98;;;;;;;28.24;32.25;99254.88;5058430;28;20035;-73
2022/07/17 06:17:42;;;;;;;4.35;2.00;;;;;;;28.20;31.99;99260.09;5057971;28;20629;-73
2022/07/17 06:20:08;;;;;;;3.35;1.25;;;;;;;28.17;32.16;99240.75;5058195;28;20048;-73
2022/07/17 06:22:34;;;;;;;10.00;1.63;;;;;;;28.24;31.83;99265.81;5075104;28;20048;-73
2022/07/17 06:25:00;;;;;;;7.32;2.30;;;;;;;28.28;31.15;99262.25;5058591;28;20135;-73
2022/07/17 06:27:26;;;;;;;3.10;1.40;;;;;;;28.27;30.46;99260.63;5042677;28;20388;-72
2022/07/17 06:29:51;;;;;;;4.20;1.40;;;;;;;28.16;30.93;99242.66;5058769;28;20052;-73
2022/07/17 06:32:17;;;;;;;3.90;1.40;;;;;;;28.35;30.06;99261.94;5041221;28;20039;-73
2022/07/17 06:34:43;;;;;;;4.78;1.20;;;;;;;28.40;29.87;99265.44;5057658;28;20068;-73
2022/07/17 06:37:09;;;;;;;2.88;0.93;;;;;;;28.46;28.88;99253.38;5041497;28;20177;-73
2022/07/17 06:39:35;;;;;;;5.43;1.20;;;;;;;28.61;29.78;99245.13;5058657;28;20043;-73
2022/07/17 06:42:01;;;;;;;3.45;1.30;;;;;;;28.71;29.56;99245.03;5058761;28;20133;-73
2022/07/17 06:44:27;;;;;;;1.92;1.20;;;;;;;29.05;28.59;99250.50;5058686;28;20047;-73
2022/07/17 06:46:53;;;;;;;2.30;0.98;;;;;;;29.15;27.90;99243.03;5058545;28;20043;-73
2022/07/17 06:49:18;;;;;;;4.53;1.42;;;;;;;29.46;27.34;99240.84;5041847;28;20032;-73
2022/07/17 06:51:45;;;;;;;2.67;1.20;;;;;;;29.65;27.17;99233.53;5058688;28;20127;-73
2022/07/17 06:54:15;;;;;;;8.73;1.27;;;;;;;30.05;27.01;99235.75;5058368;28;20044;-73
2022/07/17 06:56:41;;;;;;;3.83;1.20;;;;;;;29.91;26.94;99212.13;5058412;28;20138;-73
2022/07/17 06:59:07;;;;;;;3.88;1.10;;;;;;;30.16;27.02;99236.44;5091977;28;20043;-74
2022/07/17 07:01:35;;;;;;;8.63;1.15;;;;;;;30.43;26.25;99228.41;5092451;28;20056;-73
2022/07/17 07:04:00;;;;;;;1.75;0.90;;;;;;;30.41;25.58;99233.38;5074171;28;20454;-73
2022/07/17 07:06:26;;;;;;;3.80;0.93;;;;;;;30.41;25.48;99236.09;5057299;28;20043;-73
2022/07/17 07:08:52;;;;;;;2.95;1.00;;;;;;;30.61;25.64;99246.78;5057032;28;20097;-73
2022/07/17 07:11:18;;;;;;;5.72;1.35;;;;;;;30.68;26.00;99239.78;5040356;28;20387;-73
2022/07/17 07:13:44;;;;;;;1.52;0.80;;;;;;;30.87;26.07;99243.38;5056990;28;20491;-73
2022/07/17 07:16:10;;;;;;;1.23;0.93;;;;;;;30.83;24.86;99245.06;5056862;28;20507;-74
2022/07/17 07:18:36;;;;;;;4.38;1.08;;;;;;;31.30;24.33;99237.69;5056651;28;20066;-74
2022/07/17 07:21:02;;;;;;;3.55;1.00;;;;;;;31.49;24.79;99231.00;5040774;28;20040;-73
2022/07/17 07:23:28;;;;;;;2.33;0.90;;;;;;;31.92;23.85;99239.81;5057201;28;20047;-73
2022/07/17 07:25:54;;;;;;;4.53;0.90;;;;;;;32.21;23.07;99234.75;5090601;28;20130;-74
2022/07/17 07:28:20;;;;;;;4.15;1.10;;;;;;;32.68;22.47;99262.56;5075034;28;20052;-73
2022/07/17 07:30:46;;;;;;;4.80;1.13;;;;;;;33.22;21.85;99249.69;5057956;28;20054;-75
2022/07/17 07:33:12;;;;;;;6.15;1.30;;;;;;;34.32;20.89;99254.03;5040955;28;20480;-74
2022/07/17 07:35:38;;;;;;;4.63;1.50;;;;;;;35.49;19.60;99246.03;5057476;28;20112;-73
2022/07/17 07:38:06;;;;;;;2.97;1.05;;;;;;;37.06;17.63;99244.38;5056880;28;20051;-73
2022/07/17 07:40:32;;;;;;;4.13;1.08;;;;;;;38.11;16.81;99234.19;5074026;28;20048;-74
2022/07/17 07:42:59;;;;;;;3.15;0.90;;;;;;;39.68;15.23;99239.94;5040963;28;20039;-73
2022/07/17 07:45:25;;;;;;;1.33;0.90;;;;;;;40.84;14.02;99236.28;5057425;28;20047;-74
2022/07/17 07:47:51;;;;;;;1.27;0.90;;;;;;;42.82;12.51;99237.25;5074123;28;20173;-74
2022/07/17 07:50:17;;;;;;;2.25;0.80;;;;;;;45.08;10.38;99251.91;5073259;28;20575;-73
2022/07/17 07:52:46;;;;;;;2.65;0.98;;;;;;;46.80;9.22;99245.41;5056666;28;20123;-75
2022/07/17 07:55:12;;;;;;;1.58;0.90;;;;;;;47.87;8.50;99235.94;5040110;28;20415;-76
2022/07/17 07:57:40;;;;;;;3.17;0.90;;;;;;;48.89;7.62;99249.75;5089965;28;20036;-75
2022/07/17 08:00:08;;;;;;;3.00;1.02;;;;;;;49.32;7.53;99252.84;5056541;28;20343;-75
2022/07/17 08:02:38;;;;;;;2.85;0.88;;;;;;;48.61;7.19;99247.28;5090173;28;20094;-75
2022/07/17 08:05:04;;;;;;;4.97;0.93;;;;;;;46.91;8.19;99247.00;5056624;28;20052;-75
2022/07/17 08:07:31;;;;;;;4.35;0.90;;;;;;;44.90;9.50;99256.63;5056260;28;20047;-75
2022/07/17 08:09:59;;;;;;;5.60;1.02;;;;;;;44.27;10.36;99248.66;5095499;28;20407;-74
2022/07/17 08:12:25;;;;;;;2.47;1.00;;;;;;;44.86;10.10;99257.81;5064055;28;20035;-74
2022/07/17 08:14:51;;;;;;;1.30;0.80;;;;;;;45.70;9.39;99241.19;5046491;28;20515;-75
2022/07/17 08:17:18;;;;;;;3.05;1.00;;;;;;;47.09;8.26;99253.34;5046878;28;20506;-75
2022/07/17 08:19:44;;;;;;;2.92;0.93;;;;;;;47.16;7.91;99241.25;5080359;28;20142;-75
2022/07/17 08:22:10;;;;;;;2.08;1.23;;;;;;;47.60;7.80;99247.00;5046283;28;20123;-73
2022/07/17 08:24:35;;;;;;;3.28;0.88;;;;;;;47.40;8.19;99240.31;5046725;28;20039;-71
2022/07/17 08:27:01;;;;;;;2.90;0.70;;;;;;;46.50;7.69;99239.53;5063129;28;20495;-72
2022/07/17 08:29:27;;;;;;;2.28;0.70;;;;;;;45.19;8.04;99247.13;5063265;28;20043;-72
2022/07/17 08:31:53;;;;;;;1.27;0.55;;;;;;;43.70;8.86;99235.41;5046349;28;20044;-72
2022/07/17 08:34:19;;;;;;;0.50;0.50;;;;;;;42.84;9.21;99242.47;5046075;28;20089;-72
2022/07/17 08:36:45;;;;;;;1.52;0.90;;;;;;;41.83;10.33;99233.38;5046621;28;20039;-74
2022/07/17 08:39:11;;;;;;;4.40;2.30;;;;;;;40.69;11.52;99234.38;5046700;28;20047;-73
2022/07/17 08:41:38;;;;;;;3.95;2.35;;;;;;;39.90;12.46;99241.28;5078607;27;20043;-71
2022/07/17 08:44:07;;;;;;;2.55;1.10;;;;;;;38.69;13.32;99221.69;5059395;28;20035;-70
2022/07/17 08:46:38;;;;;;;1.70;1.10;;;;;;;38.28;13.66;99235.88;5076051;28;20085;-72
2022/07/17 08:49:05;;;;;;;0.98;0.70;;;;;;;38.36;13.61;99240.50;5077309;28;20047;-71
2022/07/17 08:51:31;;;;;;;1.95;1.00;;;;;;;38.60;13.29;99244.06;5094180;28;20058;-71
2022/07/17 08:53:57;;;;;;;2.42;0.95;;;;;;;38.85;13.25;99249.50;5059855;28;20511;-71
2022/07/17 08:56:23;;;;;;;1.88;0.90;;;;;;;39.34;13.70;99250.91;5076566;28;20457;-70
2022/07/17 08:58:51;;;;;;;3.25;1.10;;;;;;;40.44;12.70;99238.59;5057943;28;20094;-70
2022/07/17 09:01:18;;;;;;;3.33;1.00;;;;;;;41.83;12.06;99261.28;5059534;28;20078;-70
2022/07/17 09:03:59;;;;;;;1.33;1.02;;;;;;;42.80;11.05;99250.81;5076221;28;20139;-72
2022/07/17 09:06:26;;;;;;;5.18;1.00;;;;;;;44.58;9.49;99248.03;5093195;28;20052;-70
2022/07/17 09:09:05;;;;;;;2.13;0.85;;;;;;;46.02;8.36;99213.91;5092865;28;20138;-69
2022/07/17 09:11:51;;;;;;;3.67;0.85;;;;;;;46.95;8.06;99241.38;5076908;28;20055;-72
2022/07/17 09:14:18;;;;;;;6.15;1.00;;;;;;;47.49;7.85;99254.72;5094275;28;20134;-71
2022/07/17 09:17:03;;;;;;;2.20;0.80;;;;;;;46.35;8.28;99252.00;5076918;28;20047;-74
2022/07/17 09:19:39;;;;;;;2.30;1.10;;;;;;;46.58;8.28;99247.53;5092968;28;20071;-72
2022/07/17 09:22:19;;;;;;;1.48;0.75;;;;;;;46.24;8.32;99254.03;5092848;28;20779;-73
2022/07/17 09:24:50;;;;;;;3.75;0.90;;;;;;;44.53;9.18;99236.41;5092740;28;20050;-71
2022/07/17 09:27:32;;;;;;;2.30;0.90;;;;;;;44.92;9.18;99256.22;5093147;28;20039;-72
2022/07/17 09:30:07;;;;;;;2.78;1.10;;;;;;;46.85;8.32;99264.69;5092827;28;20495;-72
2022/07/17 09:32:34;;;;;;;3.80;1.30;;;;;;;48.86;6.93;99257.03;5111036;28;20624;-72
2022/07/17 09:35:01;;;;;;;1.23;0.88;;;;;;;48.97;7.10;99242.81;5076055;28;20111;-70
2022/07/17 09:37:30;;;;;;;3.38;0.90;;;;;;;49.90;6.81;99257.94;5059985;28;20180;-71
2022/07/17 09:39:57;;;;;;;1.42;0.65;;;;;;;49.90;6.83;99250.25;5059215;28;20074;-73
2022/07/17 09:42:33;;;;;;;4.13;0.95;;;;;;;49.57;6.06;99239.91;5110650;28;20071;-73
2022/07/17 09:45:05;;;;;;;1.88;0.90;;;;;;;48.85;6.45;99223.63;5058927;28;20075;-73
2022/07/17 09:47:33;;;;;;;1.77;0.82;;;;;;;47.38;7.75;99231.47;5075786;28;20538;-73
2022/07/17 09:50:01;;;;;;;1.38;1.10;;;;;;;45.87;8.70;99215.16;5075680;28;20044;-69
2022/07/17 09:52:32;;;;;;;1.75;1.00;;;;;;;44.46;10.25;99220.38;5092570;28;20051;-70
2022/07/17 09:55:00;;;;;;;0.95;0.80;;;;;;;43.07;11.34;99220.78;5075495;28;20043;-72
2022/07/17 09:57:31;;;;;;;3.42;0.98;;;;;;;42.88;11.07;99209.78;5073637;28;20049;-72
2022/07/17 10:00:05;;;;;;;2.85;1.08;;;;;;;42.13;11.46;99225.88;5092569;28;20040;-71
2022/07/17 10:02:45;;;;;;;2.15;1.00;;;;;;;40.99;11.85;99201.94;5078281;28;20549;-73
2022/07/17 10:05:15;;;;;;;1.75;0.93;;;;;;;41.33;12.40;99217.75;5091942;28;20177;-71
2022/07/17 10:07:47;;;;;;;3.20;1.17;;;;;;;41.91;12.17;99218.34;5059394;28;20035;-69
2022/07/17 10:10:15;;;;;;;2.90;1.10;;;;;;;42.52;11.23;99228.06;5042081;28;20054;-70
2022/07/17 10:12:46;;;;;;;2.08;0.90;;;;;;;43.09;10.70;99232.34;5092246;28;20051;-72
2022/07/17 10:15:13;;;;;;;3.15;1.17;;;;;;;43.87;9.13;99231.16;5076109;28;20043;-70
2022/07/17 10:17:39;;;;;;;1.40;0.98;;;;;;;43.94;9.89;99232.03;5074773;28;20048;-71
2022/07/17 10:20:06;;;;;;;1.15;1.05;;;;;;;44.38;9.61;99231.94;5078945;28;20047;-71
2022/07/17 10:22:46;;;;;;;2.45;0.98;;;;;;;45.17;8.98;99223.47;5080573;28;20079;-71
2022/07/17 10:25:15;;;;;;;1.63;0.77;;;;;;;45.77;7.84;99235.59;5064243;28;20047;-69
2022/07/17 10:27:55;;;;;;;1.17;0.90;;;;;;;45.45;7.68;99229.16;5112750;28;20146;-72
2022/07/17 10:30:29;;;;;;;1.00;0.70;;;;;;;45.16;8.03;99230.28;5092446;28;20039;-72
2022/07/17 10:32:58;;;;;;;1.77;0.80;;;;;;;45.87;7.61;99232.00;5057913;28;20050;-72
2022/07/17 10:35:28;;;;;;;1.90;0.93;;;;;;;46.16;8.04;99239.97;5091757;28;20044;-71
2022/07/17 10:37:58;;;;;;;1.67;0.73;;;;;;;46.44;7.62;99238.31;5091225;28;20074;-71
2022/07/17 10:40:29;;;;;;;3.38;0.82;;;;;;;46.39;7.83;99242.34;5074386;28;20070;-70
2022/07/17 10:42:57;;;;;;;3.83;0.93;;;;;;;46.85;7.49;99220.53;5073898;28;20067;-69
2022/07/17 10:45:33;;;;;;;2.28;0.95;;;;;;;46.73;7.45;99229.41;5057816;28;20044;-70
2022/07/17 10:48:01;;;;;;;1.27;0.93;;;;;;;45.81;8.56;99219.56;5075301;28;20147;-70
2022/07/17 10:50:35;;;;;;;2.73;0.93;;;;;;;45.48;8.26;99209.50;5062557;28;20043;-72
2022/07/17 10:53:08;;;;;;;2.03;1.00;;;;;;;44.51;8.73;99206.00;5078548;27;20039;-71
2022/07/17 10:55:37;;;;;;;2.40;0.90;;;;;;;43.72;9.26;99207.84;5078997;27;20391;-69
2022/07/17 10:58:14;;;;;;;1.30;0.88;;;;;;;43.88;9.91;99194.41;5079682;27;20491;-71
2022/07/17 11:00:41;;;;;;;4.80;1.23;;;;;;;44.34;9.27;99189.91;5113526;27;20051;-70
2022/07/17 11:03:12;;;;;;;2.22;1.10;;;;;;;44.52;9.48;99184.34;5063154;27;20449;-72
2022/07/17 11:05:40;;;;;;;3.42;1.00;;;;;;;43.89;9.67;99158.78;5086833;28;20048;-71
2022/07/17 11:08:09;;;;;;;5.05;1.00;;;;;;;43.24;9.91;99178.25;5076595;28;20047;-71
2022/07/17 11:10:37;;;;;;;1.13;0.80;;;;;;;42.94;10.41;99186.69;5058653;28;20054;-70
2022/07/17 11:13:14;;;;;;;1.73;0.90;;;;;;;42.20;10.89;99193.28;5091566;28;20035;-72
2022/07/17 11:15:47;;;;;;;1.17;0.70;;;;;;;41.42;11.65;99193.22;5092493;28;20455;-70
2022/07/17 11:18:15;;;;;;;3.85;1.10;;;;;;;40.66;12.04;99191.31;5075858;28;20058;-73
2022/07/17 11:20:54;;;;;;;4.65;1.10;;;;;;;39.31;13.13;99205.19;5042175;28;20062;-72
2022/07/17 11:23:21;;;;;;;2.20;1.15;;;;;;;39.19;13.49;99193.34;5075529;28;20100;-72
2022/07/17 11:26:07;;;;;;;2.70;1.10;;;;;;;38.85;13.78;99199.50;5042826;28;20403;-72
2022/07/17 11:28:37;;;;;;;3.90;1.13;;;;;;;38.43;13.99;99199.88;5059029;28;20134;-73
2022/07/17 11:31:23;;;;;;;3.97;0.90;;;;;;;38.38;13.87;99197.34;5074465;28;20083;-72
2022/07/17 11:33:56;;;;;;;2.17;1.00;;;;;;;38.50;13.91;99200.09;5075237;28;20120;-73
2022/07/17 11:36:25;;;;;;;2.95;1.00;;;;;;;38.69;13.53;99197.50;5058186;28;20044;-72
2022/07/17 11:38:52;;;;;;;4.88;1.38;;;;;;;38.73;13.51;99201.19;5081344;27;20050;-72